• Join FlightAware (Why Join?)
  • Login
  • US Flag 
04:45PM EDT


 

Airport Tracker/Info


-or-


 

Live Flight TrackerFlight Track Log ✈ USC105 ✈ 25-Apr-2013 ✈ KDPA - KYIP

Flight Track Log - Related Links

Times and Time Zones

All times are in EDT time to prevent confusion due to time zone crossing. See the USC105 flight status page for this flight to view local times or setup timezone preferences in your user account.

Time Position Orientation Groundspeed Altitude Reporting Facility
EDT Latitude Longitude Course Direction KTS MPH feet Rate Location/Type
05:48AM 41.8833 -88.2500 143° Southeast 119 137 1,500  Level Chicago TRACON
05:49AM 41.8500 -88.2167 143° Southeast 127 146 2,800 1,020 Climbing Chicago TRACON
05:50AM 41.8417 -88.2069 139° Southeast 129 148 3,200 1,080 Climbing Chicago Center
05:51AM 41.8128 -88.1747 140° Southeast 132 152 4,600 1,320 Climbing Chicago Center
05:52AM 41.7831 -88.1469 145° Southeast 132 152 5,900 960 Climbing Chicago Center
05:53AM 41.7867 -88.0864 85° East 169 194 6,600 480 Climbing Chicago Center
05:54AM 41.7933 -88.0122 83° East 196 226 6,900 120 Climbing Chicago Center
05:55AM 41.8061 -87.9283 78° East 218 251 6,900  Level Chicago Center
05:56AM 41.8186 -87.8453 79° East 226 260 6,900  Level Chicago Center
05:56AM 41.8167 -87.8000 93° East 225 259 6,900  Level Chicago TRACON
05:57AM 41.8333 -87.7167 75° East 226 260 6,900  Level Chicago TRACON
05:58AM 41.8500 -87.6333 75° East 227 261 6,900  Level Chicago TRACON
05:59AM 41.8469 -87.5986 97° East 227 261 6,900  Level Chicago Center
06:00AM 41.8561 -87.5014 83° East 221 254 6,900  Level Chicago Center
06:01AM 41.8658 -87.4194 81° East 222 255 6,900  Level Chicago Center
06:02AM 41.8742 -87.3364 82° East 224 258 6,900  Level Chicago Center
06:03AM 41.8844 -87.2547 80° East 224 258 6,900  Level Chicago Center
06:04AM 41.8950 -87.1722 80° East 226 260 6,900  Level Chicago Center
06:05AM 41.9081 -87.0889 78° East 228 262 6,900  Level Chicago Center
06:06AM 41.9164 -87.0047 82° East 228 262 7,000  Climbing Chicago Center
06:07AM 41.9267 -86.9236 80° East 224 258 7,000  Level Chicago Center
06:08AM 41.9353 -86.8422 82° East 221 254 7,000  Level Chicago Center
06:09AM 41.9442 -86.7614 82° East 220 253 7,000  Level Chicago Center
06:10AM 41.9525 -86.6833 82° East 219 252 7,000  Level Chicago Center
06:11AM 41.9603 -86.6036 82° East 215 247 7,000  Level Chicago Center
06:12AM 41.9686 -86.5228 82° East 219 252 7,000  Level Chicago Center
06:13AM 41.9772 -86.4433 82° East 218 251 7,000  Level Chicago Center
06:14AM 41.9861 -86.3642 81° East 216 249 7,000  Level Chicago Center
06:15AM 41.9936 -86.2853 83° East 215 247 7,000  Level Chicago Center
06:16AM 42.0017 -86.2050 82° East 216 249 7,000  Level Chicago Center
06:17AM 42.0094 -86.1247 83° East 216 249 7,000  Level Chicago Center
06:18AM 42.0183 -86.0456 81° East 215 247 7,000  Level Chicago Center
06:19AM 42.0256 -85.9653 83° East 217 250 7,000  Level Chicago Center
06:20AM 42.0339 -85.8833 82° East 220 253 7,000  Level Chicago Center
06:21AM 42.0419 -85.8014 82° East 221 254 7,000  Level Chicago Center
06:22AM 42.0497 -85.7214 83° East 218 251 7,000  Level Chicago Center
06:23AM 42.0578 -85.6392 82° East 220 253 7,000  Level Chicago Center
06:24AM 42.0653 -85.5572 83° East 220 253 7,000  Level Chicago Center
06:25AM 42.0739 -85.4758 82° East 220 253 7,000  Level Chicago Center
06:26AM 42.0811 -85.3939 83° East 220 253 7,000  Level Chicago Center
06:27AM 42.0883 -85.3119 83° East 220 253 7,000  Level Chicago Center
06:28AM 42.0967 -85.2308 82° East 220 253 7,000  Level Chicago Center
06:29AM 42.1039 -85.1506 83° East 216 249 7,000  Level Chicago Center
06:30AM 42.1111 -85.0700 83° East 216 249 7,000  Level Chicago Center
06:31AM 42.1186 -84.9897 83° East 216 249 7,000  Level Chicago Center
06:32AM 42.1258 -84.9083 83° East 218 251 7,000  Level Chicago Center
06:33AM 42.1342 -84.8125 83° East 216 249 7,000  Level Chicago Center
06:34AM 42.1411 -84.7319 83° East 217 250 7,000  Level Chicago Center
06:35AM 42.1489 -84.6511 83° East 216 249 7,000 -240 Level Chicago Center
06:36AM 42.1550 -84.5692 84° East 219 252 6,600 -600 Descending Chicago Center
06:37AM 42.1597 -84.5158 83° East 231 266 6,100 -660 Descending FAA TRACON SMA TRACON (SMA)
06:37AM 42.1617 -84.4889 84° East 233 268 6,000 -300 Descending FAA TRACON SMA TRACON (SMA)
06:37AM 42.1642 -84.4622 83° East 233 268 5,900 -600 Descending FAA TRACON SMA TRACON (SMA)
06:38AM 42.1672 -84.4294 83° East 230 265 5,600 -600 Descending FAA TRACON SMA TRACON (SMA)
06:38AM 42.1694 -84.4031 84° East 231 266 5,500 -360 Descending FAA TRACON SMA TRACON (SMA)
06:38AM 42.1717 -84.3767 84° East 230 265 5,400 -300 Descending FAA TRACON SMA TRACON (SMA)
06:39AM 42.1744 -84.3447 83° East 225 259 5,300 -480 Descending FAA TRACON SMA TRACON (SMA)
06:39AM 42.1769 -84.3197 82° East 222 255 5,100 -600 Descending FAA TRACON SMA TRACON (SMA)
06:39AM 42.1789 -84.2950 84° East 219 252 4,900 -180 Descending FAA TRACON SMA TRACON (SMA)
06:40AM 42.1814 -84.2647 84° East 214 246 5,000 120 Climbing FAA TRACON SMA TRACON (SMA)
06:40AM 42.1833 -84.2408 84° East 210 242 5,000  Level FAA TRACON SMA TRACON (SMA)
06:40AM 42.1853 -84.2175 84° East 206 237 5,000  Level FAA TRACON SMA TRACON (SMA)
06:41AM 42.1869 -84.1886 86° East 203 234 5,000  Level FAA TRACON SMA TRACON (SMA)
06:41AM 42.1886 -84.1658 84° East 201 231 5,000  Level FAA TRACON SMA TRACON (SMA)
06:41AM 42.1914 -84.1381 82° East 202 232 5,000  Level FAA TRACON SMA TRACON (SMA)
06:42AM 42.1933 -84.1147 84° East 201 231 5,000  Level FAA TRACON SMA TRACON (SMA)
06:42AM 42.1950 -84.0917 84° East 202 232 5,000  Level FAA TRACON SMA TRACON (SMA)
06:42AM 42.1975 -84.0628 83° East 202 232 5,000  Level FAA TRACON SMA TRACON (SMA)
06:43AM 42.1994 -84.0394 84° East 202 232 5,000  Level FAA TRACON SMA TRACON (SMA)
06:43AM 42.2011 -84.0167 84° East 201 231 5,000  Level FAA TRACON SMA TRACON (SMA)
06:43AM 42.2033 -83.9936 83° East 200 230 5,000  Level FAA TRACON SMA TRACON (SMA)
06:44AM 42.2058 -83.9650 83° East 199 229 5,000  Level FAA TRACON SMA TRACON (SMA)
06:44AM 42.2075 -83.9422 84° East 199 229 5,000  Level FAA TRACON SMA TRACON (SMA)
06:44AM 42.2097 -83.9164 83° East 198 228 5,000 -660 Level Cleveland Center
06:45AM 42.2139 -83.8411 86° East 206 237 4,100 -840 Descending Cleveland Center
06:46AM 42.2200 -83.7683 84° East 206 237 3,500 -780 Descending Cleveland Center
06:47AM 42.2325 -83.6933 77° East 201 231 2,700 -660 Descending Cleveland Center
06:48AM 42.2428 -83.6208 79° East 196 226 2,200 -600 Descending Cleveland Center
06:49AM 42.2433 -83.5936 88° East 169 194 1,900 -1,020 Descending FAA TRACON SMA TRACON (SMA)
06:49AM 42.2433 -83.5758 90° East 155 178 1,500 -1,080 Descending FAA TRACON SMA TRACON (SMA)
06:49AM 42.2436 -83.5589 89° East 137 158 1,200 -900 Descending FAA TRACON SMA TRACON (SMA)
06:50AM 42.2444 -83.5433 86° East 135 155 900 -480 Descending FAA TRACON SMA TRACON (SMA)
06:50AM 42.2439 -83.5469 258° West 135 155 900  Level FAA TRACON SMA TRACON (SMA)
06:50AM 42.2439 -83.5469 251° West 135 155 900  Level FAA TRACON SMA TRACON (SMA)
06:52AM 42.2393 -83.5310 90° East  Level Estimated
06:59AM 42.2393 -83.5310 90° East  Level Estimated